createdAt,value
2023-05-10T00:00:42.543Z,12.25
2023-05-10T00:01:42.578Z,12.25
2023-05-10T00:02:42.613Z,12.24
2023-05-10T00:03:42.622Z,12.22
2023-05-10T00:04:42.573Z,12.23
2023-05-10T00:05:42.578Z,12.22
2023-05-10T00:06:42.588Z,12.22
2023-05-10T00:07:42.591Z,12.22
2023-05-10T00:08:42.604Z,12.22
2023-05-10T00:09:42.611Z,12.21
2023-05-10T00:10:42.617Z,12.20
2023-05-10T00:11:42.627Z,12.20
2023-05-10T00:12:42.629Z,12.20
2023-05-10T00:13:42.648Z,12.21
2023-05-10T00:14:42.652Z,12.19
2023-05-10T00:15:42.665Z,12.18
2023-05-10T00:16:42.677Z,12.17
2023-05-10T00:17:42.685Z,12.16
2023-05-10T00:18:42.687Z,12.12
2023-05-10T00:19:42.693Z,12.13
2023-05-10T00:20:42.699Z,12.09
2023-05-10T00:21:42.715Z,12.08
2023-05-10T00:22:42.717Z,12.09
2023-05-10T00:23:42.726Z,12.07
2023-05-10T00:24:42.738Z,12.04
2023-05-10T00:25:42.742Z,12.04
2023-05-10T00:26:42.751Z,12.04
2023-05-10T00:27:42.756Z,12.02
2023-05-10T00:45:43.329Z,11.86
2023-05-10T00:46:42.904Z,11.82
2023-05-10T00:47:42.941Z,11.79
2023-05-10T00:48:42.919Z,11.79
2023-05-10T00:49:42.923Z,11.79
2023-05-10T00:50:42.931Z,11.77
2023-05-10T00:51:42.939Z,11.75
2023-05-10T00:52:42.947Z,11.75
2023-05-10T00:53:42.953Z,11.74
2023-05-10T00:54:42.955Z,11.72
2023-05-10T00:55:42.966Z,11.71
2023-05-10T00:56:42.973Z,11.68
2023-05-10T00:57:42.979Z,11.66
2023-05-10T00:58:42.987Z,11.65
2023-05-10T00:59:42.992Z,11.64
2023-05-10T01:00:42.995Z,11.63
2023-05-10T01:01:43.040Z,11.62
2023-05-10T01:02:43.066Z,11.59
2023-05-10T01:03:43.024Z,11.57
2023-05-10T01:04:43.046Z,11.58
2023-05-10T01:05:43.043Z,11.57
2023-05-10T01:06:43.048Z,11.57
2023-05-10T01:07:43.061Z,11.54
2023-05-10T01:08:43.060Z,11.53
2023-05-10T01:09:43.077Z,11.49
2023-05-10T01:10:43.083Z,11.50
2023-05-10T01:11:43.085Z,11.49
2023-05-10T01:12:43.169Z,11.51
2023-05-10T01:13:43.102Z,11.48
2023-05-10T01:14:43.109Z,11.49
2023-05-10T01:15:43.123Z,11.47
2023-05-10T01:16:43.116Z,11.47
2023-05-10T01:17:43.159Z,11.45
2023-05-10T01:18:43.139Z,11.43
2023-05-10T01:19:43.148Z,11.40
2023-05-10T01:20:43.165Z,11.39
2023-05-10T01:21:43.155Z,11.36
2023-05-10T01:22:43.172Z,11.37
2023-05-10T01:23:43.177Z,11.38
2023-05-10T01:24:43.188Z,11.36
2023-05-10T01:25:43.190Z,11.33
2023-05-10T01:26:43.198Z,11.32
2023-05-10T01:27:43.213Z,11.36
2023-05-10T01:28:43.229Z,11.34
2023-05-10T01:29:43.236Z,11.37
2023-05-10T01:30:43.238Z,11.37
2023-05-10T01:31:43.260Z,11.37
2023-05-10T01:32:43.274Z,11.35
2023-05-10T01:33:43.273Z,11.35
2023-05-10T01:34:43.272Z,11.33
2023-05-10T01:35:43.286Z,11.31
2023-05-10T01:36:43.296Z,11.28
2023-05-10T01:37:43.301Z,11.27
2023-05-10T01:38:43.307Z,11.24
2023-05-10T01:39:43.317Z,11.24
2023-05-10T01:40:43.321Z,11.24
2023-05-10T01:41:43.326Z,11.23
2023-05-10T01:42:43.340Z,11.22
2023-05-10T01:43:43.347Z,11.23
2023-05-10T01:44:43.351Z,11.20
2023-05-10T01:45:43.360Z,11.20
2023-05-10T01:46:43.446Z,11.19
2023-05-10T01:47:43.410Z,11.19
2023-05-10T01:48:43.384Z,11.16
2023-05-10T01:49:43.395Z,11.16
2023-05-10T01:50:43.405Z,11.14
2023-05-10T01:51:43.420Z,11.13
2023-05-10T01:52:43.422Z,11.13
2023-05-10T01:53:43.436Z,11.13
2023-05-10T01:54:43.435Z,11.12
2023-05-10T01:55:43.442Z,11.11
2023-05-10T01:56:43.445Z,11.12
2023-05-10T01:57:43.461Z,11.10
2023-05-10T01:58:43.470Z,11.10
2023-05-10T01:59:43.473Z,11.09
2023-05-10T02:00:43.488Z,11.05
2023-05-10T02:01:43.523Z,11.07
2023-05-10T02:02:43.530Z,11.04
2023-05-10T02:03:43.534Z,11.03
2023-05-10T02:04:43.522Z,11.01
2023-05-10T02:05:43.525Z,11.01
2023-05-10T02:06:43.531Z,10.99
2023-05-10T02:07:43.554Z,10.98
2023-05-10T02:08:43.553Z,11.01
2023-05-10T02:09:43.562Z,10.99
2023-05-10T02:10:43.576Z,10.98
2023-05-10T02:11:43.585Z,10.97
2023-05-10T02:12:43.658Z,10.99
2023-05-10T02:13:43.602Z,11.00
2023-05-10T02:14:43.624Z,10.99
2023-05-10T02:15:43.620Z,10.99
2023-05-10T02:16:43.651Z,10.99
2023-05-10T02:17:43.691Z,11.01
2023-05-10T02:18:43.646Z,11.01
2023-05-10T02:19:43.660Z,10.97
2023-05-10T02:20:43.670Z,10.99
2023-05-10T02:21:43.680Z,10.96
2023-05-10T02:22:43.703Z,10.96
2023-05-10T02:23:43.764Z,10.94
2023-05-10T02:24:43.702Z,10.94
2023-05-10T02:25:43.716Z,10.92
2023-05-10T02:26:43.723Z,10.93
2023-05-10T02:27:43.791Z,10.90
2023-05-10T02:28:43.739Z,10.90
2023-05-10T02:29:43.762Z,10.90
2023-05-10T02:30:43.766Z,10.88
2023-05-10T02:31:43.773Z,10.86
2023-05-10T02:32:43.812Z,10.86
2023-05-10T02:33:43.795Z,10.86
2023-05-10T02:34:43.791Z,10.86
2023-05-10T02:35:43.799Z,10.84
2023-05-10T02:36:43.807Z,10.85
2023-05-10T02:37:43.819Z,10.84
2023-05-10T02:38:43.829Z,10.83
2023-05-10T02:39:43.828Z,10.83
2023-05-10T02:40:43.838Z,10.82
2023-05-10T02:41:43.843Z,10.81
2023-05-10T02:42:43.856Z,10.80
2023-05-10T02:43:43.857Z,10.79
2023-05-10T02:44:43.869Z,10.78
2023-05-10T02:45:43.906Z,10.78
2023-05-10T02:46:43.884Z,10.78
2023-05-10T02:47:43.908Z,10.77
2023-05-10T02:48:43.900Z,10.77
2023-05-10T02:49:43.916Z,10.72
2023-05-10T02:50:43.915Z,10.71
2023-05-10T02:51:43.927Z,10.69
2023-05-10T02:52:43.936Z,10.69
2023-05-10T02:53:43.944Z,10.67
2023-05-10T02:54:43.947Z,10.65
2023-05-10T02:55:43.957Z,10.63
2023-05-10T02:56:43.965Z,10.62
2023-05-10T02:57:43.983Z,10.62
2023-05-10T02:58:43.985Z,10.61
2023-05-10T02:59:43.995Z,10.60
2023-05-10T03:00:44.002Z,10.64
2023-05-10T03:01:44.025Z,10.59
2023-05-10T03:02:44.105Z,10.59
2023-05-10T03:03:44.037Z,10.57
2023-05-10T03:04:44.066Z,10.55
2023-05-10T03:05:44.054Z,10.53
2023-05-10T03:06:44.056Z,10.53
2023-05-10T03:07:44.064Z,10.53
2023-05-10T03:08:44.071Z,10.54
2023-05-10T03:09:44.077Z,10.53
2023-05-10T03:10:44.091Z,10.54
2023-05-10T03:11:44.100Z,10.52
2023-05-10T03:12:44.126Z,10.51
2023-05-10T03:13:44.117Z,10.51
2023-05-10T03:14:44.128Z,10.51
2023-05-10T03:15:44.167Z,10.51
2023-05-10T03:16:44.967Z,10.50
2023-05-10T03:17:44.176Z,10.49
2023-05-10T03:18:44.156Z,10.50
2023-05-10T03:19:44.169Z,10.50
2023-05-10T03:20:44.175Z,10.50
2023-05-10T03:21:44.190Z,10.50
2023-05-10T03:22:44.190Z,10.51
2023-05-10T03:23:44.194Z,10.51
2023-05-10T03:24:44.202Z,10.53
2023-05-10T03:25:44.214Z,10.51
2023-05-10T03:26:44.223Z,10.50
2023-05-10T03:27:44.233Z,10.51
2023-05-10T03:28:44.246Z,10.49
2023-05-10T03:29:44.252Z,10.49
2023-05-10T03:30:44.262Z,10.48
2023-05-10T03:31:44.299Z,10.48
2023-05-10T03:32:44.301Z,10.48
2023-05-10T03:33:44.289Z,10.48
2023-05-10T03:34:44.309Z,10.48
2023-05-10T03:35:44.309Z,10.48
2023-05-10T03:36:44.320Z,10.48
2023-05-10T03:37:44.327Z,10.49
2023-05-10T03:38:44.328Z,10.48
2023-05-10T03:39:44.342Z,10.51
2023-05-10T03:40:44.342Z,10.51
2023-05-10T03:41:44.357Z,10.53
2023-05-10T03:42:44.366Z,10.55
2023-05-10T03:43:44.380Z,10.51
2023-05-10T03:44:44.390Z,10.55
2023-05-10T03:45:44.404Z,10.53
2023-05-10T03:46:44.430Z,10.54
2023-05-10T03:47:44.431Z,10.54
2023-05-10T03:48:44.436Z,10.57
2023-05-10T03:49:44.450Z,10.57
2023-05-10T03:50:44.453Z,10.59
2023-05-10T03:51:44.473Z,10.62
2023-05-10T03:52:44.470Z,10.60
2023-05-10T03:53:44.481Z,10.62
2023-05-10T03:54:44.493Z,10.62
2023-05-10T03:55:44.499Z,10.63
2023-05-10T03:56:44.505Z,10.64
2023-05-10T03:57:44.519Z,10.66
2023-05-10T03:58:44.523Z,10.67
2023-05-10T03:59:44.535Z,10.70
2023-05-10T04:00:44.573Z,10.72
2023-05-10T04:01:44.567Z,10.73
2023-05-10T04:02:45.951Z,10.75
2023-05-10T04:03:44.636Z,10.77
2023-05-10T04:04:44.590Z,10.78
2023-05-10T04:05:44.608Z,10.81
2023-05-10T04:06:44.612Z,10.82
2023-05-10T04:07:44.620Z,10.85
2023-05-10T04:08:44.652Z,10.89
2023-05-10T04:09:44.642Z,10.92
2023-05-10T04:10:44.678Z,10.92
2023-05-10T04:11:44.663Z,10.94
2023-05-10T04:12:44.692Z,10.98
2023-05-10T04:13:44.685Z,10.98
2023-05-10T04:14:44.689Z,11.03
2023-05-10T04:15:44.716Z,11.04
2023-05-10T04:16:44.744Z,11.06
2023-05-10T04:17:44.732Z,11.07
2023-05-10T04:18:44.729Z,11.12
2023-05-10T04:19:44.738Z,11.12
2023-05-10T04:20:44.749Z,11.14
2023-05-10T04:21:44.758Z,11.17
2023-05-10T04:22:44.761Z,11.19
2023-05-10T04:23:44.794Z,11.20
2023-05-10T04:24:44.781Z,11.23
2023-05-10T04:25:44.792Z,11.26
2023-05-10T04:26:44.793Z,11.29
2023-05-10T04:27:44.805Z,11.30
2023-05-10T04:28:44.811Z,11.32
2023-05-10T04:29:44.822Z,11.33
2023-05-10T04:30:44.839Z,11.35
2023-05-10T04:31:44.831Z,11.36
2023-05-10T04:32:44.867Z,11.40
2023-05-10T04:33:44.866Z,11.42
2023-05-10T04:34:44.863Z,11.44
2023-05-10T04:35:44.875Z,11.44
2023-05-10T04:36:44.881Z,11.46
2023-05-10T04:37:44.892Z,11.47
2023-05-10T04:38:44.899Z,11.49
2023-05-10T04:39:44.910Z,11.49
2023-05-10T04:40:44.917Z,11.50
2023-05-10T04:41:44.928Z,11.50
2023-05-10T04:42:44.954Z,11.51
2023-05-10T04:43:44.950Z,11.53
2023-05-10T04:44:44.958Z,11.53
2023-05-10T04:45:44.964Z,11.53
2023-05-10T04:46:45.000Z,11.56
2023-05-10T04:47:45.002Z,11.59
2023-05-10T04:48:44.995Z,11.58
2023-05-10T04:49:45.006Z,11.58
2023-05-10T04:50:45.016Z,11.65
2023-05-10T04:51:45.024Z,11.63
2023-05-10T04:52:45.037Z,11.64
2023-05-10T04:53:48.571Z,11.68
2023-05-10T04:54:45.050Z,11.71
2023-05-10T04:55:45.057Z,11.72
2023-05-10T04:56:45.071Z,11.74
2023-05-10T04:57:45.078Z,11.76
2023-05-10T04:58:45.091Z,11.79
2023-05-10T04:59:45.096Z,11.85
2023-05-10T05:00:45.107Z,11.85
2023-05-10T05:01:45.132Z,11.93
2023-05-10T05:02:45.170Z,11.94
2023-05-10T05:03:45.227Z,11.98
2023-05-10T05:04:45.152Z,12.03
2023-05-10T05:05:45.155Z,12.08
2023-05-10T05:06:45.176Z,12.10
2023-05-10T05:07:45.176Z,12.15
2023-05-10T05:08:45.191Z,12.19
2023-05-10T05:09:45.197Z,12.26
2023-05-10T05:10:45.217Z,12.30
2023-05-10T05:11:45.225Z,12.38
2023-05-10T05:12:45.229Z,12.42
2023-05-10T05:13:45.244Z,12.46
2023-05-10T05:14:45.246Z,12.52
2023-05-10T05:15:45.263Z,12.57
2023-05-10T05:16:45.309Z,12.65
2023-05-10T05:17:45.319Z,12.71
2023-05-10T05:18:45.292Z,12.76
2023-05-10T05:19:45.304Z,12.81
2023-05-10T05:20:45.321Z,12.88
2023-05-10T05:21:45.329Z,12.93
2023-05-10T05:22:45.337Z,12.97
2023-05-10T05:23:45.368Z,13.03
2023-05-10T05:24:45.361Z,13.07
2023-05-10T05:25:45.375Z,13.08
2023-05-10T05:26:45.377Z,13.11
2023-05-10T05:27:45.387Z,13.11
2023-05-10T05:28:45.394Z,13.16
2023-05-10T05:29:45.414Z,13.19
2023-05-10T05:30:45.413Z,13.23
2023-05-10T05:31:45.454Z,13.27
2023-05-10T05:32:45.432Z,13.30
2023-05-10T05:33:45.433Z,13.34
2023-05-10T05:34:45.440Z,13.38
2023-05-10T05:35:45.449Z,13.39
2023-05-10T05:36:45.458Z,13.43
2023-05-10T05:37:45.467Z,13.45
2023-05-10T05:38:45.477Z,13.47
2023-05-10T05:39:45.483Z,13.51
2023-05-10T05:40:45.493Z,13.56
2023-05-10T05:41:45.497Z,13.57
2023-05-10T05:42:45.509Z,13.60
2023-05-10T05:43:45.511Z,13.62
2023-05-10T05:44:45.522Z,13.63
2023-05-10T05:45:45.573Z,13.64
2023-05-10T05:46:45.541Z,13.64
2023-05-10T05:47:45.569Z,13.70
2023-05-10T05:48:45.561Z,13.72
2023-05-10T05:49:45.576Z,13.73
2023-05-10T05:50:45.581Z,13.76
2023-05-10T05:51:45.582Z,13.81
2023-05-10T05:52:45.593Z,13.81
2023-05-10T05:53:45.608Z,13.82
2023-05-10T05:54:45.618Z,13.86
2023-05-10T05:55:45.624Z,13.88
2023-05-10T05:56:45.638Z,13.92
2023-05-10T05:57:45.643Z,13.95
2023-05-10T05:58:45.650Z,13.98
2023-05-10T05:59:45.660Z,14.00
2023-05-10T06:00:45.672Z,14.03
2023-05-10T06:01:45.704Z,14.03
2023-05-10T06:02:45.715Z,14.03
2023-05-10T06:03:45.727Z,14.05
2023-05-10T06:04:45.699Z,14.07
2023-05-10T06:05:45.733Z,14.09
2023-05-10T06:06:45.725Z,14.09
2023-05-10T06:07:45.733Z,14.11
2023-05-10T06:08:45.744Z,14.11
2023-05-10T06:09:45.752Z,14.16
2023-05-10T06:10:45.759Z,14.20
2023-05-10T06:11:45.761Z,14.25
2023-05-10T06:12:45.798Z,14.24
2023-05-10T06:13:45.779Z,14.24
2023-05-10T06:14:45.794Z,14.27
2023-05-10T06:15:45.806Z,14.32
2023-05-10T06:16:45.837Z,14.35
2023-05-10T06:17:45.849Z,14.38
2023-05-10T06:18:45.821Z,14.41
2023-05-10T06:19:45.839Z,14.47
2023-05-10T06:20:45.852Z,14.48
2023-05-10T06:21:45.854Z,14.48
2023-05-10T06:22:45.865Z,14.53
2023-05-10T06:23:45.869Z,14.53
2023-05-10T06:24:45.887Z,14.56
2023-05-10T06:25:45.895Z,14.59
2023-05-10T06:26:45.908Z,14.59
2023-05-10T06:27:49.205Z,14.59
2023-05-10T06:28:45.926Z,14.61
2023-05-10T06:29:45.942Z,14.64
2023-05-10T06:30:45.950Z,14.66
2023-05-10T06:31:46.059Z,14.69
2023-05-10T06:32:46.025Z,14.72
2023-05-10T06:33:45.984Z,14.74
2023-05-10T06:34:45.981Z,14.80
2023-05-10T06:35:45.993Z,14.88
2023-05-10T06:36:46.004Z,14.90
2023-05-10T06:37:46.034Z,14.94
2023-05-10T06:38:46.019Z,14.96
2023-05-10T06:39:46.029Z,14.98
2023-05-10T06:40:46.038Z,15.02
2023-05-10T06:41:46.062Z,15.05
2023-05-10T06:42:46.058Z,15.10
2023-05-10T06:43:46.067Z,15.12
2023-05-10T06:44:46.073Z,15.14
2023-05-10T06:45:46.086Z,15.17
2023-05-10T06:46:46.203Z,15.16
2023-05-10T06:47:46.121Z,15.20
2023-05-10T06:48:46.120Z,15.23
2023-05-10T06:49:46.128Z,15.23
2023-05-10T06:50:46.132Z,15.26
2023-05-10T06:51:46.149Z,15.27
2023-05-10T06:52:46.148Z,15.32
2023-05-10T06:53:46.153Z,15.32
2023-05-10T06:54:46.168Z,15.33
2023-05-10T06:55:46.173Z,15.40
2023-05-10T06:56:46.185Z,15.41
2023-05-10T06:57:46.197Z,15.50
2023-05-10T06:58:46.242Z,15.56
2023-05-10T06:59:46.223Z,15.63
2023-05-10T07:00:46.284Z,15.72
2023-05-10T07:01:46.305Z,15.82
2023-05-10T07:02:46.258Z,15.87
2023-05-10T07:03:46.250Z,15.95
2023-05-10T07:04:46.280Z,16.04
2023-05-10T07:05:46.279Z,16.12
2023-05-10T07:06:46.287Z,16.20
2023-05-10T07:07:46.308Z,16.24
2023-05-10T07:08:46.315Z,16.27
2023-05-10T07:09:46.322Z,16.30
2023-05-10T07:10:46.336Z,16.32
2023-05-10T07:11:46.349Z,16.34
2023-05-10T07:12:46.380Z,16.37
2023-05-10T07:13:46.368Z,16.42
2023-05-10T07:14:46.374Z,16.42
2023-05-10T07:15:46.380Z,16.45
2023-05-10T07:16:46.416Z,16.47
2023-05-10T07:17:46.557Z,16.49
2023-05-10T07:18:46.417Z,16.52
2023-05-10T07:19:46.427Z,16.54
2023-05-10T07:20:46.452Z,16.57
2023-05-10T07:21:46.449Z,16.62
2023-05-10T07:22:46.460Z,16.65
2023-05-10T07:23:46.469Z,16.70
2023-05-10T07:24:46.516Z,16.73
2023-05-10T07:25:46.492Z,16.75
2023-05-10T07:26:46.491Z,16.80
2023-05-10T07:27:46.507Z,16.82
2023-05-10T07:28:46.516Z,16.86
2023-05-10T07:29:46.533Z,16.89
2023-05-10T07:30:46.544Z,16.98
2023-05-10T07:31:46.588Z,17.00
2023-05-10T07:32:46.588Z,17.02
2023-05-10T07:33:46.556Z,17.00
2023-05-10T07:34:46.561Z,16.98
2023-05-10T07:35:46.574Z,16.96
2023-05-10T07:36:46.585Z,16.93
2023-05-10T07:37:46.602Z,16.90
2023-05-10T07:38:46.615Z,16.92
2023-05-10T07:39:46.610Z,16.93
2023-05-10T07:40:46.626Z,16.94
2023-05-10T07:41:46.632Z,16.97
2023-05-10T07:42:46.640Z,17.04
2023-05-10T07:43:46.656Z,17.05
2023-05-10T07:44:46.661Z,17.09
2023-05-10T07:45:46.687Z,17.16
2023-05-10T07:46:46.683Z,17.22
2023-05-10T07:47:46.703Z,17.31
2023-05-10T07:48:46.697Z,17.36
2023-05-10T07:49:46.713Z,17.44
2023-05-10T07:50:46.731Z,17.49
2023-05-10T07:51:46.727Z,17.55
2023-05-10T07:52:46.726Z,17.61
2023-05-10T07:53:46.739Z,17.67
2023-05-10T07:54:46.754Z,17.75
2023-05-10T07:55:46.765Z,17.86
2023-05-10T07:56:46.792Z,17.91
2023-05-10T07:57:46.779Z,17.97
2023-05-10T07:58:46.791Z,18.02
2023-05-10T07:59:46.812Z,18.13
2023-05-10T08:00:46.816Z,18.18
2023-05-10T08:01:46.830Z,18.21
2023-05-10T08:02:46.894Z,18.21
2023-05-10T08:03:46.964Z,18.27
2023-05-10T08:04:46.899Z,18.32
2023-05-10T08:05:46.875Z,18.32
2023-05-10T08:06:46.890Z,18.39
2023-05-10T08:07:46.895Z,18.45
2023-05-10T08:08:46.915Z,18.52
2023-05-10T08:09:46.921Z,18.55
2023-05-10T08:10:46.926Z,18.62
2023-05-10T08:11:46.939Z,18.66
2023-05-10T08:12:46.949Z,18.65
2023-05-10T08:13:46.962Z,18.66
2023-05-10T08:14:46.971Z,18.67
2023-05-10T08:15:46.991Z,18.68
2023-05-10T08:16:46.987Z,18.71
2023-05-10T08:17:47.043Z,18.76
2023-05-10T08:18:47.105Z,18.81
2023-05-10T08:19:47.025Z,18.85
2023-05-10T08:20:47.042Z,18.92
2023-05-10T08:21:47.041Z,18.94
2023-05-10T08:22:47.054Z,19.04
2023-05-10T08:23:47.070Z,19.14
2023-05-10T08:24:47.091Z,19.20
2023-05-10T08:25:47.107Z,19.21
2023-05-10T08:26:47.098Z,19.31
2023-05-10T08:27:47.128Z,19.29
2023-05-10T08:28:47.124Z,19.35
2023-05-10T08:29:50.293Z,19.37
2023-05-10T08:30:47.151Z,19.45
2023-05-10T08:31:47.287Z,19.47
2023-05-10T08:32:47.257Z,19.57
2023-05-10T08:33:47.182Z,19.57
2023-05-10T08:34:47.197Z,19.61
2023-05-10T08:35:47.205Z,19.65
2023-05-10T08:36:47.336Z,19.64
2023-05-10T08:37:47.235Z,19.68
2023-05-10T08:38:47.248Z,19.68
2023-05-10T08:39:47.253Z,19.64
2023-05-10T08:40:47.268Z,19.63
2023-05-10T08:41:47.277Z,19.67
2023-05-10T08:42:47.282Z,19.75
2023-05-10T08:43:47.301Z,19.81
2023-05-10T08:44:49.364Z,19.87
2023-05-10T08:45:47.329Z,19.93
2023-05-10T08:46:47.366Z,20.01
2023-05-10T08:47:47.363Z,20.10
2023-05-10T08:48:47.360Z,20.17
2023-05-10T08:49:47.366Z,20.26
2023-05-10T08:50:47.375Z,20.33
2023-05-10T08:51:47.393Z,20.40
2023-05-10T08:52:47.407Z,20.47
2023-05-10T08:53:47.418Z,20.50
2023-05-10T08:54:47.435Z,20.56
2023-05-10T08:55:47.444Z,20.65
2023-05-10T08:56:49.675Z,20.67
2023-05-10T08:57:47.483Z,20.68
2023-05-10T08:58:47.482Z,20.75
2023-05-10T08:59:47.485Z,20.80
2023-05-10T09:00:47.541Z,20.88
2023-05-10T09:01:47.514Z,20.92
2023-05-10T09:02:47.574Z,20.96
2023-05-10T09:03:47.551Z,21.03
2023-05-10T09:04:47.591Z,21.09
2023-05-10T09:05:47.558Z,21.14
2023-05-10T09:06:47.562Z,21.19
2023-05-10T09:07:47.577Z,21.21
2023-05-10T09:08:47.592Z,21.26
2023-05-10T09:09:47.596Z,21.29
2023-05-10T09:10:47.614Z,21.33
2023-05-10T09:11:47.618Z,21.32
2023-05-10T09:12:47.627Z,21.37
2023-05-10T09:13:47.637Z,21.48
2023-05-10T09:14:47.642Z,21.54
2023-05-10T09:15:47.660Z,21.64
2023-05-10T09:16:47.702Z,21.74
2023-05-10T09:17:47.725Z,21.84
2023-05-10T09:18:47.728Z,21.92
2023-05-10T09:19:47.713Z,21.99
2023-05-10T09:20:47.728Z,22.01
2023-05-10T09:21:47.733Z,22.05
2023-05-10T09:22:47.749Z,22.07
2023-05-10T09:23:48.501Z,22.06
2023-05-10T09:24:47.767Z,22.08
2023-05-10T09:25:47.780Z,22.03
2023-05-10T09:26:47.785Z,21.97
2023-05-10T09:27:47.797Z,21.95
2023-05-10T09:28:47.801Z,21.89
2023-05-10T09:29:47.808Z,21.81
2023-05-10T09:30:47.826Z,21.78
2023-05-10T09:31:47.836Z,21.75
2023-05-10T09:32:47.847Z,21.64
2023-05-10T09:33:47.848Z,21.61
2023-05-10T09:34:47.854Z,21.59
2023-05-10T09:35:47.870Z,21.56
2023-05-10T09:36:47.892Z,21.57
2023-05-10T09:37:47.893Z,21.55
2023-05-10T09:38:47.916Z,21.56
2023-05-10T09:39:47.908Z,21.56
2023-05-10T09:40:47.941Z,21.55
2023-05-10T09:41:47.938Z,21.58
2023-05-10T09:42:47.944Z,21.58
2023-05-10T09:43:47.966Z,21.59
2023-05-10T09:44:47.965Z,21.58
2023-05-10T09:45:47.996Z,21.55
2023-05-10T09:46:47.997Z,21.50
2023-05-10T09:47:48.053Z,21.52
2023-05-10T09:48:48.020Z,21.56
2023-05-10T09:49:48.023Z,21.54
2023-05-10T09:50:48.034Z,21.50
2023-05-10T09:51:48.044Z,21.45
2023-05-10T09:52:48.049Z,21.46
2023-05-10T09:53:48.071Z,21.49
2023-05-10T09:54:48.072Z,21.48
2023-05-10T09:55:48.089Z,21.41
2023-05-10T09:56:48.142Z,21.37
2023-05-10T09:57:48.133Z,21.37
2023-05-10T09:58:48.119Z,21.36
2023-05-10T09:59:48.130Z,21.37
2023-05-10T10:00:48.141Z,21.41
2023-05-10T10:01:48.192Z,21.43
2023-05-10T10:02:48.176Z,21.50
2023-05-10T10:03:48.168Z,21.53
2023-05-10T10:04:48.197Z,21.57
2023-05-10T10:05:48.200Z,21.62
2023-05-10T10:06:48.210Z,21.68
2023-05-10T10:07:48.223Z,21.68
2023-05-10T10:08:48.243Z,21.63
2023-05-10T10:09:48.249Z,21.53
2023-05-10T10:10:48.267Z,21.31
2023-05-10T10:11:48.286Z,21.13
2023-05-10T10:12:48.294Z,20.93
2023-05-10T10:13:48.300Z,20.72
2023-05-10T10:14:48.408Z,20.51
2023-05-10T10:15:48.321Z,20.35
2023-05-10T10:16:59.807Z,20.21
2023-05-10T10:17:48.369Z,20.07
2023-05-10T10:18:48.393Z,19.92
2023-05-10T10:19:48.486Z,19.79
2023-05-10T10:20:48.377Z,19.63
2023-05-10T10:21:48.384Z,19.52
2023-05-10T10:22:48.400Z,19.45
2023-05-10T10:23:48.403Z,19.34
2023-05-10T10:24:48.417Z,19.27
2023-05-10T10:25:48.433Z,19.19
2023-05-10T10:26:48.450Z,19.08
2023-05-10T10:27:48.461Z,18.98
2023-05-10T10:28:48.475Z,18.89
2023-05-10T10:29:48.488Z,18.83
2023-05-10T10:30:48.495Z,18.79
2023-05-10T10:31:48.564Z,18.72
2023-05-10T10:32:48.557Z,18.67
2023-05-10T10:33:48.574Z,18.66
2023-05-10T10:34:48.542Z,18.67
2023-05-10T10:35:48.553Z,18.71
2023-05-10T10:36:48.581Z,18.72
2023-05-10T10:37:48.594Z,18.67
2023-05-10T10:38:48.592Z,18.69
2023-05-10T10:39:48.594Z,18.68
2023-05-10T10:40:48.602Z,18.69
2023-05-10T10:41:48.617Z,18.69
2023-05-10T10:42:48.621Z,18.66
2023-05-10T10:43:48.630Z,18.59
2023-05-10T10:44:48.632Z,18.56
2023-05-10T10:45:48.648Z,18.53
2023-05-10T10:46:48.676Z,18.52
2023-05-10T10:47:48.679Z,18.50
2023-05-10T10:48:48.674Z,18.47
2023-05-10T10:49:48.681Z,18.40
2023-05-10T10:50:48.689Z,18.30
2023-05-10T10:51:48.697Z,18.20
2023-05-10T10:52:48.716Z,18.16
2023-05-10T10:53:48.712Z,18.13
2023-05-10T10:54:48.719Z,18.11
2023-05-10T10:55:48.732Z,18.15
2023-05-10T10:56:48.745Z,18.17
2023-05-10T10:57:48.759Z,18.20
2023-05-10T10:58:48.767Z,18.16
2023-05-10T10:59:48.774Z,18.17
2023-05-10T11:00:48.792Z,18.21
2023-05-10T11:01:48.797Z,18.23
2023-05-10T11:02:48.853Z,18.26
2023-05-10T11:03:48.825Z,18.29
2023-05-10T11:04:48.839Z,18.28
2023-05-10T11:05:48.849Z,18.25
2023-05-10T11:06:48.854Z,18.22
2023-05-10T11:07:48.860Z,18.26
2023-05-10T11:08:48.878Z,18.29
2023-05-10T11:09:48.921Z,18.33
2023-05-10T11:10:48.897Z,18.32
2023-05-10T11:11:48.911Z,18.32
2023-05-10T11:12:48.919Z,18.33
2023-05-10T11:13:50.781Z,18.36
2023-05-10T11:14:48.945Z,18.36
2023-05-10T11:15:48.964Z,18.38
2023-05-10T11:16:48.981Z,18.38
2023-05-10T11:17:49.017Z,18.35
2023-05-10T11:18:50.217Z,18.31
2023-05-10T11:19:48.992Z,18.30
2023-05-10T11:20:48.999Z,18.32
2023-05-10T11:21:49.013Z,18.35
2023-05-10T11:22:49.026Z,18.33
2023-05-10T11:23:49.043Z,18.37
2023-05-10T11:24:50.188Z,18.46
2023-05-10T11:25:49.078Z,18.51
2023-05-10T11:26:49.088Z,18.61
2023-05-10T11:27:49.093Z,18.65
2023-05-10T11:28:49.097Z,18.80
2023-05-10T11:29:49.106Z,18.90
2023-05-10T11:30:49.177Z,18.93
2023-05-10T11:31:49.136Z,18.92
2023-05-10T11:32:49.155Z,18.93
2023-05-10T11:33:49.164Z,18.94
2023-05-10T11:34:49.167Z,19.00
2023-05-10T11:35:49.190Z,19.05
2023-05-10T11:36:49.188Z,19.08
2023-05-10T11:37:49.204Z,19.12
2023-05-10T11:38:49.219Z,19.13
2023-05-10T11:39:49.259Z,19.24
2023-05-10T11:40:49.247Z,19.29
2023-05-10T11:41:49.250Z,19.33
2023-05-10T11:42:49.277Z,19.37
2023-05-10T11:43:49.259Z,19.36
2023-05-10T11:44:49.264Z,19.38
2023-05-10T11:45:49.339Z,19.42
2023-05-10T11:46:49.327Z,19.46
2023-05-10T11:47:49.324Z,19.49
2023-05-10T11:48:49.309Z,19.51
2023-05-10T11:49:49.326Z,19.54
2023-05-10T11:50:49.327Z,19.55
2023-05-10T11:51:49.351Z,19.52
2023-05-10T11:52:49.362Z,19.51
2023-05-10T11:53:49.368Z,19.57
2023-05-10T11:54:49.380Z,19.63
2023-05-10T11:55:49.410Z,19.64
2023-05-10T11:56:49.415Z,19.62
2023-05-10T11:57:49.459Z,19.67
2023-05-10T11:58:49.424Z,19.69
2023-05-10T11:59:49.462Z,19.75
2023-05-10T12:00:49.453Z,19.87
2023-05-10T12:01:49.456Z,19.90
2023-05-10T12:02:49.572Z,19.96
2023-05-10T12:03:49.562Z,20.05
2023-05-10T12:04:49.533Z,20.19
2023-05-10T12:05:49.497Z,20.21
2023-05-10T12:06:49.512Z,20.29
2023-05-10T12:07:49.518Z,20.29
2023-05-10T12:08:49.531Z,20.21
2023-05-10T12:09:49.542Z,20.16
2023-05-10T12:10:49.557Z,20.09
2023-05-10T12:11:49.567Z,20.07
2023-05-10T12:12:49.580Z,20.05
2023-05-10T12:13:49.591Z,20.05
2023-05-10T12:14:49.603Z,20.10
2023-05-10T12:15:49.620Z,20.11
2023-05-10T12:16:49.658Z,20.15
2023-05-10T12:17:49.653Z,20.22
2023-05-10T12:18:49.693Z,20.23
2023-05-10T12:19:49.659Z,20.28
2023-05-10T12:20:49.666Z,20.33
2023-05-10T12:21:49.679Z,20.33
2023-05-10T12:22:49.682Z,20.35
2023-05-10T12:23:49.706Z,20.40
2023-05-10T12:24:49.704Z,20.42
2023-05-10T12:25:49.717Z,20.42
2023-05-10T12:26:49.752Z,20.41
2023-05-10T12:27:49.765Z,20.34
2023-05-10T12:28:49.760Z,20.31
2023-05-10T12:29:49.768Z,20.26
2023-05-10T12:30:49.780Z,20.18
2023-05-10T12:31:49.809Z,20.14
2023-05-10T12:32:49.860Z,20.16
2023-05-10T12:33:49.810Z,20.14
2023-05-10T12:34:49.827Z,20.12
2023-05-10T12:35:49.848Z,20.09
2023-05-10T12:36:49.855Z,20.06
2023-05-10T12:37:49.862Z,19.98
2023-05-10T12:38:49.888Z,19.93
2023-05-10T12:39:49.885Z,19.89
2023-05-10T12:40:49.927Z,19.76
2023-05-10T12:41:49.917Z,19.70
2023-05-10T12:42:50.046Z,19.53
2023-05-10T12:43:49.936Z,19.51
2023-05-10T12:44:49.950Z,19.39
2023-05-10T12:45:49.997Z,19.32
2023-05-10T12:46:49.974Z,19.22
2023-05-10T12:47:49.989Z,19.16
2023-05-10T12:48:51.765Z,19.13
2023-05-10T12:49:50.007Z,19.05
2023-05-10T12:50:50.037Z,18.98
2023-05-10T12:51:50.032Z,18.90
2023-05-10T12:52:50.055Z,18.88
2023-05-10T12:53:50.057Z,18.83
2023-05-10T12:54:50.078Z,18.82
2023-05-10T12:55:50.074Z,18.83
2023-05-10T12:56:50.090Z,18.89
2023-05-10T12:57:50.098Z,18.91
2023-05-10T12:58:50.106Z,18.93
2023-05-10T12:59:50.121Z,18.98
2023-05-10T13:00:50.154Z,19.03
2023-05-10T13:01:50.143Z,19.07
2023-05-10T13:02:50.248Z,19.13
2023-05-10T13:03:50.173Z,19.19
2023-05-10T13:04:51.069Z,19.27
2023-05-10T13:05:50.183Z,19.42
2023-05-10T13:06:50.193Z,19.54
2023-05-10T13:07:50.207Z,19.61
2023-05-10T13:08:50.216Z,19.76
2023-05-10T13:09:50.224Z,19.85